Time;durP1;ratioP1;P1;durP2;ratioP2;P2;SDS_P1;SDS_P2;PMS_P1;PMS_P2;Temp;Humidity;BMP_temperature;BMP_pressure;BME280_temperature;BME280_humidity;BME280_pressure;Samples;Min_cycle;Max_cycle;Signal;HPM_P1;HPM_P2
2023/05/25 00:01:33;;;;;;;5.45;2.30;;;;;;;;;;5060254;28;20061;-56
2023/05/25 00:04:01;;;;;;;3.67;2.08;;;;;;;;;;5054703;28;20116;-57
2023/05/25 00:06:31;;;;;;;7.10;2.50;;;;;;;;;;5045575;28;20057;-57
2023/05/25 00:08:58;;;;;;;5.63;2.20;;;;;;;;;;5056847;28;20528;-54
2023/05/25 00:11:25;;;;;;;5.65;2.20;;;;;;;;;;5063447;28;20059;-56
2023/05/25 00:13:52;;;;;;;4.32;2.28;;;;;;;;;;5061430;28;20081;-55
2023/05/25 00:16:18;;;;;;;5.15;2.33;;;;;;;;;;5053173;28;20087;-58
2023/05/25 00:18:47;;;;;;;3.85;2.33;;;;;;;;;;5065099;28;20053;-58
2023/05/25 00:21:14;;;;;;;3.60;2.17;;;;;;;;;;5056234;28;20053;-58
2023/05/25 00:23:43;;;;;;;6.93;3.00;;;;;;;;;;5062853;28;20053;-57
2023/05/25 00:26:10;;;;;;;5.88;2.58;;;;;;;;;;5060354;28;20052;-57
2023/05/25 00:28:36;;;;;;;4.22;2.55;;;;;;;;;;5059054;28;20094;-57
2023/05/25 00:31:02;;;;;;;4.40;2.15;;;;;;;;;;5051864;28;20076;-58
2023/05/25 00:33:29;;;;;;;2.88;2.25;;;;;;;;;;5063032;28;20053;-56
2023/05/25 00:35:57;;;;;;;7.20;2.53;;;;;;;;;;5056528;28;20119;-56
2023/05/25 00:38:23;;;;;;;5.20;2.88;;;;;;;;;;5045284;28;20056;-56
2023/05/25 00:40:53;;;;;;;6.28;2.53;;;;;;;;;;5061256;28;20059;-56
2023/05/25 00:43:20;;;;;;;4.70;2.47;;;;;;;;;;5046010;28;20061;-57
2023/05/25 00:45:46;;;;;;;5.35;2.30;;;;;;;;;;5045322;28;20089;-57
2023/05/25 00:48:13;;;;;;;12.18;2.80;;;;;;;;;;5054697;28;20060;-56
2023/05/25 00:50:41;;;;;;;4.45;2.58;;;;;;;;;;5059101;28;20824;-56
2023/05/25 00:53:08;;;;;;;8.65;2.67;;;;;;;;;;5058159;28;20108;-57
2023/05/25 00:55:37;;;;;;;7.80;2.45;;;;;;;;;;5043924;28;20053;-58
2023/05/25 00:58:04;;;;;;;5.40;2.70;;;;;;;;;;5050413;28;20063;-52
2023/05/25 01:00:32;;;;;;;5.28;2.35;;;;;;;;;;5060556;28;20053;-53
2023/05/25 01:02:59;;;;;;;3.85;2.55;;;;;;;;;;5045081;28;20244;-57
2023/05/25 01:05:28;;;;;;;4.38;2.55;;;;;;;;;;5050607;28;20056;-53
2023/05/25 01:07:55;;;;;;;6.13;2.80;;;;;;;;;;5057471;28;20052;-57
2023/05/25 01:10:23;;;;;;;4.97;2.22;;;;;;;;;;5064798;28;20061;-55
2023/05/25 01:12:51;;;;;;;2.78;2.15;;;;;;;;;;5064433;28;20049;-56
2023/05/25 01:15:19;;;;;;;5.05;2.20;;;;;;;;;;5092614;28;20053;-55
2023/05/25 01:17:47;;;;;;;4.40;2.35;;;;;;;;;;5062731;28;20547;-55
2023/05/25 01:20:13;;;;;;;6.40;2.15;;;;;;;;;;5058295;28;20084;-53
2023/05/25 01:22:46;;;;;;;5.45;2.20;;;;;;;;;;5063828;28;20053;-56
2023/05/25 01:25:16;;;;;;;3.33;2.28;;;;;;;;;;5052871;28;20084;-57
2023/05/25 01:27:45;;;;;;;10.45;2.53;;;;;;;;;;5060971;28;20052;-56
2023/05/25 01:30:13;;;;;;;6.20;2.28;;;;;;;;;;5044472;28;20061;-56
2023/05/25 01:32:41;;;;;;;7.78;2.83;;;;;;;;;;5047836;28;20477;-55
2023/05/25 01:35:08;;;;;;;6.03;2.83;;;;;;;;;;5047294;28;20057;-55
2023/05/25 01:37:36;;;;;;;6.20;2.50;;;;;;;;;;5060272;28;20127;-55
2023/05/25 01:40:04;;;;;;;9.98;3.22;;;;;;;;;;5054404;28;20499;-52
2023/05/25 01:42:31;;;;;;;3.92;2.38;;;;;;;;;;5052719;28;20099;-53
2023/05/25 01:44:58;;;;;;;4.18;2.08;;;;;;;;;;5063109;28;20534;-52
2023/05/25 01:47:35;;;;;;;6.03;3.33;;;;;;;;;;5063753;28;20591;-57
2023/05/25 01:50:04;;;;;;;3.20;1.98;;;;;;;;;;5062111;28;20053;-54
2023/05/25 01:52:37;;;;;;;6.70;2.60;;;;;;;;;;5064134;28;20056;-54
2023/05/25 01:55:15;;;;;;;6.75;2.63;;;;;;;;;;5062762;28;20545;-53
2023/05/25 01:57:41;;;;;;;5.20;2.60;;;;;;;;;;5055338;28;20060;-57
2023/05/25 02:00:08;;;;;;;4.85;2.53;;;;;;;;;;5055312;28;20144;-54
2023/05/25 02:02:35;;;;;;;7.72;3.45;;;;;;;;;;5051513;28;20060;-57
2023/05/25 02:05:02;;;;;;;6.60;3.40;;;;;;;;;;5044510;28;20070;-52
2023/05/25 02:07:28;;;;;;;4.40;2.88;;;;;;;;;;5044972;28;20149;-56
2023/05/25 02:09:55;;;;;;;3.58;2.45;;;;;;;;;;5044010;28;20084;-57
2023/05/25 02:12:21;;;;;;;4.38;2.45;;;;;;;;;;5061706;28;20065;-57
2023/05/25 02:14:48;;;;;;;4.13;3.03;;;;;;;;;;5063105;28;20075;-55
2023/05/25 02:17:16;;;;;;;6.63;2.88;;;;;;;;;;5046644;28;20060;-53
2023/05/25 02:19:43;;;;;;;6.15;3.30;;;;;;;;;;5061413;28;20045;-54
2023/05/25 02:22:10;;;;;;;7.03;3.30;;;;;;;;;;5051508;28;20049;-55
2023/05/25 02:24:36;;;;;;;5.22;2.83;;;;;;;;;;5055916;28;20061;-56
2023/05/25 02:27:04;;;;;;;6.32;2.65;;;;;;;;;;5043655;28;20570;-55
2023/05/25 02:29:30;;;;;;;4.38;2.78;;;;;;;;;;5057852;28;20063;-53
2023/05/25 02:31:57;;;;;;;3.53;2.38;;;;;;;;;;5061501;28;20049;-54
2023/05/25 02:34:23;;;;;;;11.10;2.58;;;;;;;;;;5060525;28;20479;-54
2023/05/25 02:36:50;;;;;;;8.02;2.58;;;;;;;;;;5043502;28;20119;-57
2023/05/25 02:39:16;;;;;;;7.18;2.45;;;;;;;;;;5053019;28;20866;-56
2023/05/25 02:41:43;;;;;;;6.10;2.55;;;;;;;;;;5052198;28;20057;-57
2023/05/25 02:44:09;;;;;;;5.13;2.67;;;;;;;;;;5063378;28;20056;-57
2023/05/25 02:46:35;;;;;;;4.05;2.47;;;;;;;;;;5063669;28;20049;-53
2023/05/25 02:49:02;;;;;;;8.25;2.50;;;;;;;;;;5061715;28;20144;-56
2023/05/25 02:51:28;;;;;;;4.40;2.67;;;;;;;;;;5063196;28;20080;-54
2023/05/25 02:53:55;;;;;;;3.75;2.65;;;;;;;;;;5048215;28;20081;-56
2023/05/25 02:56:21;;;;;;;6.22;2.50;;;;;;;;;;5061655;28;20063;-52
2023/05/25 02:58:48;;;;;;;2.70;2.25;;;;;;;;;;5061094;28;20048;-57
2023/05/25 03:01:17;;;;;;;4.38;2.08;;;;;;;;;;5053597;28;20119;-53
2023/05/25 03:03:45;;;;;;;6.30;2.63;;;;;;;;;;5048053;28;20055;-57
2023/05/25 03:06:13;;;;;;;5.30;2.88;;;;;;;;;;5060110;28;20049;-57
2023/05/25 03:08:40;;;;;;;6.18;2.83;;;;;;;;;;5062942;28;20482;-55
2023/05/25 03:11:06;;;;;;;5.60;2.70;;;;;;;;;;5047065;28;20049;-56
2023/05/25 03:13:33;;;;;;;7.40;2.88;;;;;;;;;;5058198;28;20130;-53
2023/05/25 03:15:59;;;;;;;4.95;2.88;;;;;;;;;;5055723;28;20057;-57
2023/05/25 03:18:26;;;;;;;4.38;2.70;;;;;;;;;;5064789;28;20506;-54
2023/05/25 03:20:52;;;;;;;5.63;3.13;;;;;;;;;;5058188;28;20050;-55
2023/05/25 03:23:18;;;;;;;5.65;3.45;;;;;;;;;;5046378;28;20131;-57
2023/05/25 03:25:45;;;;;;;8.70;3.28;;;;;;;;;;5053850;28;20049;-55
2023/05/25 03:28:12;;;;;;;7.07;2.83;;;;;;;;;;5046588;28;20582;-56
2023/05/25 03:30:38;;;;;;;6.47;2.83;;;;;;;;;;5047884;28;20064;-55
2023/05/25 03:33:04;;;;;;;4.35;2.95;;;;;;;;;;5062465;28;20536;-55
2023/05/25 03:35:31;;;;;;;5.43;2.88;;;;;;;;;;5064258;28;20075;-52
2023/05/25 03:37:57;;;;;;;5.35;2.80;;;;;;;;;;5066315;28;20049;-56
2023/05/25 03:40:24;;;;;;;6.93;3.42;;;;;;;;;;5060753;28;20102;-52
2023/05/25 03:42:50;;;;;;;6.32;2.78;;;;;;;;;;5053222;28;20064;-56
2023/05/25 03:45:16;;;;;;;5.32;2.45;;;;;;;;;;5064903;28;20059;-54
2023/05/25 03:47:44;;;;;;;5.70;2.90;;;;;;;;;;5065255;28;20173;-53
2023/05/25 03:50:10;;;;;;;6.55;2.90;;;;;;;;;;5063042;28;20149;-54
2023/05/25 03:52:37;;;;;;;5.80;2.97;;;;;;;;;;5052007;28;20144;-55
2023/05/25 03:55:04;;;;;;;5.60;2.92;;;;;;;;;;5064839;28;20243;-55
2023/05/25 03:57:30;;;;;;;4.88;2.78;;;;;;;;;;5061447;28;20143;-54
2023/05/25 03:59:56;;;;;;;6.38;3.15;;;;;;;;;;5049835;28;20148;-55
2023/05/25 04:02:23;;;;;;;4.07;2.70;;;;;;;;;;5049504;28;20577;-57
2023/05/25 04:04:50;;;;;;;4.53;3.17;;;;;;;;;;5050205;28;20057;-56
2023/05/25 04:07:17;;;;;;;5.05;3.22;;;;;;;;;;5054688;28;21087;-53
2023/05/25 04:09:44;;;;;;;6.22;3.15;;;;;;;;;;5063235;28;20502;-55
2023/05/25 04:12:10;;;;;;;5.20;3.15;;;;;;;;;;5063374;28;20652;-52
2023/05/25 04:14:36;;;;;;;6.55;3.15;;;;;;;;;;5045328;28;20056;-56
2023/05/25 04:17:03;;;;;;;7.82;4.03;;;;;;;;;;5059112;28;20053;-57
2023/05/25 04:19:29;;;;;;;6.28;3.00;;;;;;;;;;5056615;28;20088;-57
2023/05/25 04:21:56;;;;;;;4.38;3.20;;;;;;;;;;5064871;28;20058;-56
2023/05/25 04:24:22;;;;;;;5.95;3.10;;;;;;;;;;5060971;28;20436;-55
2023/05/25 04:26:49;;;;;;;5.18;3.03;;;;;;;;;;5064216;28;20053;-57
2023/05/25 04:29:16;;;;;;;5.55;2.90;;;;;;;;;;5045349;28;20537;-57
2023/05/25 04:31:44;;;;;;;5.15;3.38;;;;;;;;;;5045363;28;20107;-56
2023/05/25 04:34:13;;;;;;;7.28;3.85;;;;;;;;;;5063435;28;20141;-57
2023/05/25 04:36:41;;;;;;;9.10;3.53;;;;;;;;;;5051961;28;20432;-55
2023/05/25 04:39:08;;;;;;;10.55;3.83;;;;;;;;;;5048060;28;20057;-54
2023/05/25 04:41:35;;;;;;;6.00;3.13;;;;;;;;;;5059211;28;20215;-53
2023/05/25 04:44:02;;;;;;;8.50;3.95;;;;;;;;;;5066038;28;20168;-53
2023/05/25 04:46:39;;;;;;;13.13;4.40;;;;;;;;;;5062468;28;20588;-55
2023/05/25 04:49:07;;;;;;;6.50;3.95;;;;;;;;;;5048377;28;20648;-55
2023/05/25 04:51:34;;;;;;;8.20;3.70;;;;;;;;;;5057120;28;20049;-56
2023/05/25 04:54:01;;;;;;;9.35;4.57;;;;;;;;;;5063310;28;20059;-54
2023/05/25 04:56:27;;;;;;;7.18;3.85;;;;;;;;;;5064398;28;20148;-55
2023/05/25 04:58:53;;;;;;;6.93;4.38;;;;;;;;;;5059509;28;20663;-55
2023/05/25 05:01:20;;;;;;;6.10;3.90;;;;;;;;;;5063643;28;20706;-58
2023/05/25 05:03:46;;;;;;;5.97;3.65;;;;;;;;;;5062249;28;20147;-56
2023/05/25 05:06:13;;;;;;;9.00;4.07;;;;;;;;;;5063729;28;20525;-56
2023/05/25 05:08:40;;;;;;;12.77;4.43;;;;;;;;;;5052509;28;20057;-57
2023/05/25 05:11:06;;;;;;;8.23;4.20;;;;;;;;;;5062824;28;20055;-58
2023/05/25 05:13:33;;;;;;;7.22;4.35;;;;;;;;;;5054029;28;20063;-57
2023/05/25 05:16:00;;;;;;;8.77;3.80;;;;;;;;;;5051452;28;20136;-57
2023/05/25 05:18:27;;;;;;;11.35;4.95;;;;;;;;;;5063615;28;20072;-54
2023/05/25 05:20:54;;;;;;;12.63;4.43;;;;;;;;;;5061451;28;20057;-55
2023/05/25 05:23:20;;;;;;;10.82;5.45;;;;;;;;;;5050315;28;20576;-57
2023/05/25 05:25:47;;;;;;;11.52;4.60;;;;;;;;;;5064043;28;20495;-55
2023/05/25 05:28:13;;;;;;;14.77;4.93;;;;;;;;;;5063368;28;20176;-57
2023/05/25 05:30:39;;;;;;;10.68;4.82;;;;;;;;;;5062775;28;20087;-55
2023/05/25 05:33:06;;;;;;;13.88;6.22;;;;;;;;;;5063057;28;20457;-56
2023/05/25 05:35:32;;;;;;;14.65;5.50;;;;;;;;;;5062066;28;20143;-57
2023/05/25 05:37:58;;;;;;;12.43;5.55;;;;;;;;;;5063100;28;20059;-57
2023/05/25 05:40:25;;;;;;;14.10;7.32;;;;;;;;;;5062651;28;20506;-57
2023/05/25 05:42:52;;;;;;;12.85;6.20;;;;;;;;;;5058115;28;20532;-53
2023/05/25 05:45:18;;;;;;;11.93;6.35;;;;;;;;;;5060681;28;20059;-56
2023/05/25 05:47:45;;;;;;;17.25;6.60;;;;;;;;;;5054548;28;20057;-57
2023/05/25 05:50:11;;;;;;;13.77;6.55;;;;;;;;;;5070556;28;20049;-57
2023/05/25 05:52:37;;;;;;;15.40;6.63;;;;;;;;;;5063095;28;20140;-57
2023/05/25 05:55:05;;;;;;;12.48;6.45;;;;;;;;;;5044882;28;20107;-56
2023/05/25 05:57:32;;;;;;;11.95;6.47;;;;;;;;;;5048345;28;20519;-57
2023/05/25 05:59:58;;;;;;;17.35;7.05;;;;;;;;;;5061996;28;20049;-54
2023/05/25 06:02:24;;;;;;;11.10;6.10;;;;;;;;;;5065577;28;20061;-55
2023/05/25 06:04:51;;;;;;;13.20;6.53;;;;;;;;;;5055401;28;20088;-56
2023/05/25 06:07:17;;;;;;;17.00;7.13;;;;;;;;;;5058054;28;20565;-55
2023/05/25 06:09:43;;;;;;;13.07;6.50;;;;;;;;;;5043461;28;20045;-56
2023/05/25 06:12:10;;;;;;;13.73;5.47;;;;;;;;;;5044278;28;20056;-56
2023/05/25 06:14:36;;;;;;;17.30;6.68;;;;;;;;;;5062451;28;20049;-56
2023/05/25 06:17:04;;;;;;;15.93;5.38;;;;;;;;;;5059396;28;20055;-54
2023/05/25 06:19:30;;;;;;;10.20;5.93;;;;;;;;;;5061770;28;20099;-55
2023/05/25 06:21:57;;;;;;;8.23;5.47;;;;;;;;;;5059964;28;20111;-56
2023/05/25 06:24:23;;;;;;;13.30;6.53;;;;;;;;;;5063021;28;20055;-58
2023/05/25 06:26:50;;;;;;;11.25;5.82;;;;;;;;;;5090612;28;20057;-56
2023/05/25 06:29:16;;;;;;;10.60;6.47;;;;;;;;;;5058601;28;20053;-52
2023/05/25 06:31:42;;;;;;;15.80;6.80;;;;;;;;;;5061078;28;20107;-53
2023/05/25 06:34:09;;;;;;;11.93;6.00;;;;;;;;;;5062250;28;20081;-52
2023/05/25 06:36:36;;;;;;;13.88;6.38;;;;;;;;;;5060417;28;20059;-53
2023/05/25 06:39:02;;;;;;;10.25;5.57;;;;;;;;;;5059486;28;20069;-55
2023/05/25 06:41:29;;;;;;;9.50;5.97;;;;;;;;;;5061433;28;20931;-53
2023/05/25 06:43:56;;;;;;;15.38;5.28;;;;;;;;;;5062291;28;20057;-52
2023/05/25 06:46:22;;;;;;;10.48;5.22;;;;;;;;;;5055072;28;20087;-52
2023/05/25 06:48:49;;;;;;;11.35;5.95;;;;;;;;;;5056306;28;20049;-53
2023/05/25 06:51:15;;;;;;;11.23;5.28;;;;;;;;;;5064393;28;20174;-56
2023/05/25 06:53:43;;;;;;;10.70;6.53;;;;;;;;;;5074834;28;20056;-53
2023/05/25 06:56:09;;;;;;;7.75;3.78;;;;;;;;;;5074291;28;20484;-52
2023/05/25 06:58:36;;;;;;;7.75;4.45;;;;;;;;;;5066321;28;20110;-55
2023/05/25 07:01:02;;;;;;;10.25;4.85;;;;;;;;;;5064773;28;20062;-53
2023/05/25 07:03:29;;;;;;;10.25;5.10;;;;;;;;;;5056436;28;20069;-52
2023/05/25 07:05:55;;;;;;;11.25;4.80;;;;;;;;;;5061875;28;20104;-56
2023/05/25 07:08:22;;;;;;;5.30;3.28;;;;;;;;;;5061272;28;20052;-54
2023/05/25 07:10:48;;;;;;;9.07;4.22;;;;;;;;;;5066059;28;20945;-57
2023/05/25 07:13:15;;;;;;;10.63;3.92;;;;;;;;;;5058891;28;20061;-51
2023/05/25 07:15:42;;;;;;;8.65;3.80;;;;;;;;;;5063257;28;20049;-52
2023/05/25 07:18:11;;;;;;;9.15;4.00;;;;;;;;;;5049657;28;20053;-54
2023/05/25 07:20:41;;;;;;;9.20;4.65;;;;;;;;;;5070673;28;20052;-53
2023/05/25 07:23:08;;;;;;;13.90;5.43;;;;;;;;;;5063933;28;20102;-54
2023/05/25 07:25:35;;;;;;;12.73;5.07;;;;;;;;;;5061070;28;20556;-55
2023/05/25 07:28:01;;;;;;;5.88;3.33;;;;;;;;;;5060198;28;20093;-54
2023/05/25 07:30:29;;;;;;;7.05;3.15;;;;;;;;;;5065139;28;20102;-52
2023/05/25 07:32:56;;;;;;;7.30;3.50;;;;;;;;;;5066566;28;20060;-55
2023/05/25 07:35:23;;;;;;;8.07;3.30;;;;;;;;;;5065891;28;20098;-53
2023/05/25 07:37:56;;;;;;;5.80;3.03;;;;;;;;;;5058223;28;20057;-53
2023/05/25 07:40:23;;;;;;;9.95;3.88;;;;;;;;;;5046092;28;20112;-56
2023/05/25 07:42:50;;;;;;;5.35;3.50;;;;;;;;;;5062156;28;20697;-54
2023/05/25 07:45:16;;;;;;;9.50;3.95;;;;;;;;;;5065577;28;20107;-57
2023/05/25 07:47:43;;;;;;;7.70;4.18;;;;;;;;;;5052547;28;20057;-58
2023/05/25 07:50:09;;;;;;;10.43;4.07;;;;;;;;;;5061012;28;20052;-54
2023/05/25 07:52:37;;;;;;;6.68;4.05;;;;;;;;;;5053447;28;20528;-57
2023/05/25 07:55:07;;;;;;;8.50;4.35;;;;;;;;;;5063146;28;20057;-54
2023/05/25 07:57:33;;;;;;;8.43;3.75;;;;;;;;;;5058146;28;20063;-57
2023/05/25 07:59:59;;;;;;;10.32;4.25;;;;;;;;;;5063446;28;20045;-56
2023/05/25 08:02:26;;;;;;;8.73;3.80;;;;;;;;;;5060502;28;20056;-54
2023/05/25 08:04:52;;;;;;;7.13;3.70;;;;;;;;;;5053110;28;20446;-53
2023/05/25 08:07:19;;;;;;;8.52;3.65;;;;;;;;;;5062777;28;20518;-54
2023/05/25 08:09:46;;;;;;;7.20;3.00;;;;;;;;;;5063618;28;20053;-58
2023/05/25 08:12:12;;;;;;;7.90;3.10;;;;;;;;;;5062290;28;20150;-57
2023/05/25 08:14:59;;;;;;;7.90;3.13;;;;;;;;;;5052176;28;20148;-57
2023/05/25 08:17:25;;;;;;;6.53;3.00;;;;;;;;;;5059015;28;20053;-56
2023/05/25 08:19:53;;;;;;;5.00;3.20;;;;;;;;;;5060355;28;20922;-57
2023/05/25 08:22:19;;;;;;;8.38;3.28;;;;;;;;;;5063684;28;20060;-57
2023/05/25 08:24:45;;;;;;;6.10;3.13;;;;;;;;;;5056466;28;20059;-53
2023/05/25 08:27:12;;;;;;;5.63;3.05;;;;;;;;;;5060488;28;20083;-54
2023/05/25 08:29:38;;;;;;;4.38;2.53;;;;;;;;;;5061569;28;20053;-56
2023/05/25 08:32:05;;;;;;;8.23;2.97;;;;;;;;;;5054473;28;20107;-56
2023/05/25 08:34:31;;;;;;;4.65;2.75;;;;;;;;;;5057381;28;20518;-56
2023/05/25 08:36:58;;;;;;;4.85;2.28;;;;;;;;;;5061206;28;20156;-55
2023/05/25 08:39:24;;;;;;;6.38;2.90;;;;;;;;;;5061687;28;20057;-58
2023/05/25 08:41:51;;;;;;;7.10;2.97;;;;;;;;;;5025944;28;1068479;-56
2023/05/25 08:44:17;;;;;;;3.85;2.55;;;;;;;;;;5075317;28;20054;-55
2023/05/25 08:46:46;;;;;;;10.18;3.28;;;;;;;;;;5061112;28;20076;-57
2023/05/25 08:49:13;;;;;;;6.00;2.53;;;;;;;;;;5054229;28;20049;-55
2023/05/25 08:51:49;;;;;;;11.55;2.70;;;;;;;;;;5062154;28;20052;-57
2023/05/25 08:54:17;;;;;;;5.15;2.42;;;;;;;;;;5065106;28;20532;-52
2023/05/25 08:56:54;;;;;;;6.45;2.63;;;;;;;;;;5052931;28;20057;-54
2023/05/25 08:59:36;;;;;;;8.52;2.50;;;;;;;;;;5071157;28;20052;-56
2023/05/25 09:02:11;;;;;;;7.57;2.47;;;;;;;;;;5062247;28;20049;-55
2023/05/25 09:04:38;;;;;;;4.38;2.40;;;;;;;;;;5064001;28;20087;-53
2023/05/25 09:07:05;;;;;;;5.22;2.47;;;;;;;;;;5064817;28;20049;-54
2023/05/25 09:09:37;;;;;;;6.28;2.22;;;;;;;;;;5063500;28;20083;-52
2023/05/25 09:12:05;;;;;;;9.38;2.97;;;;;;;;;;5062896;28;20110;-54
2023/05/25 09:14:32;;;;;;;5.05;2.20;;;;;;;;;;5052207;28;20059;-54
2023/05/25 09:16:59;;;;;;;6.63;2.58;;;;;;;;;;5063985;28;20459;-56
2023/05/25 09:19:25;;;;;;;4.13;2.20;;;;;;;;;;5061377;28;20052;-58
2023/05/25 09:21:52;;;;;;;6.68;2.38;;;;;;;;;;5063959;28;20085;-55
2023/05/25 09:24:32;;;;;;;4.35;2.20;;;;;;;;;;5064049;28;20049;-56
2023/05/25 09:26:59;;;;;;;4.65;2.40;;;;;;;;;;5058496;28;20139;-56
2023/05/25 09:29:26;;;;;;;7.03;2.40;;;;;;;;;;5059469;28;20088;-57
2023/05/25 09:31:52;;;;;;;5.07;2.25;;;;;;;;;;5059065;28;20146;-58
2023/05/25 09:34:19;;;;;;;3.20;1.90;;;;;;;;;;5055133;28;20061;-56
2023/05/25 09:36:45;;;;;;;7.32;2.15;;;;;;;;;;5058554;28;20810;-54
2023/05/25 09:39:15;;;;;;;5.20;2.40;;;;;;;;;;5063650;28;20146;-55
2023/05/25 09:41:42;;;;;;;8.90;2.67;;;;;;;;;;5063726;28;20060;-56
2023/05/25 09:44:08;;;;;;;5.30;2.53;;;;;;;;;;5063080;28;20140;-57
2023/05/25 09:46:37;;;;;;;5.20;2.22;;;;;;;;;;5053481;28;20060;-58
2023/05/25 09:49:07;;;;;;;6.57;2.17;;;;;;;;;;5043930;28;20414;-57
2023/05/25 09:51:34;;;;;;;4.97;2.25;;;;;;;;;;5053713;28;20056;-56
2023/05/25 09:54:00;;;;;;;5.55;2.80;;;;;;;;;;5061516;28;20088;-57
2023/05/25 09:56:28;;;;;;;5.90;2.33;;;;;;;;;;5063311;28;20128;-54
2023/05/25 09:58:55;;;;;;;6.97;2.35;;;;;;;;;;5063974;28;20053;-53
2023/05/25 10:01:22;;;;;;;5.45;2.22;;;;;;;;;;5063079;28;20148;-52
2023/05/25 10:03:49;;;;;;;4.00;2.35;;;;;;;;;;5063571;28;20091;-57
2023/05/25 10:06:30;;;;;;;4.13;2.40;;;;;;;;;;5060948;28;20049;-57
2023/05/25 10:08:56;;;;;;;8.10;2.72;;;;;;;;;;5045194;28;20148;-56
2023/05/25 10:11:23;;;;;;;5.20;2.45;;;;;;;;;;5044908;28;20115;-56
2023/05/25 10:13:51;;;;;;;4.65;2.13;;;;;;;;;;5063738;28;20052;-56
2023/05/25 10:16:20;;;;;;;4.13;1.98;;;;;;;;;;5061342;28;20903;-55
2023/05/25 10:18:58;;;;;;;4.05;2.00;;;;;;;;;;5062812;28;20060;-56
2023/05/25 10:21:25;;;;;;;4.78;2.20;;;;;;;;;;5045574;28;20060;-54
2023/05/25 10:23:56;;;;;;;6.95;2.40;;;;;;;;;;5060363;28;20049;-55
2023/05/25 10:26:25;;;;;;;8.20;2.83;;;;;;;;;;5064047;28;20830;-54
2023/05/25 10:28:54;;;;;;;3.55;1.73;;;;;;;;;;5062827;28;20584;-56
2023/05/25 10:31:22;;;;;;;3.20;2.05;;;;;;;;;;5055380;28;20119;-56
2023/05/25 10:33:48;;;;;;;8.30;2.22;;;;;;;;;;5072209;28;20056;-55
2023/05/25 10:36:19;;;;;;;4.53;2.03;;;;;;;;;;5062964;28;20095;-55
2023/05/25 10:38:46;;;;;;;4.57;1.92;;;;;;;;;;5062140;28;20099;-55
2023/05/25 10:41:14;;;;;;;3.80;1.80;;;;;;;;;;5060132;28;20053;-56
2023/05/25 10:43:41;;;;;;;4.75;1.70;;;;;;;;;;5049909;28;20049;-56
2023/05/25 10:46:08;;;;;;;2.08;1.50;;;;;;;;;;5042850;28;20089;-57
2023/05/25 10:48:36;;;;;;;3.28;1.83;;;;;;;;;;5042668;28;20108;-54
2023/05/25 10:51:02;;;;;;;4.97;2.28;;;;;;;;;;5046602;28;20061;-54
2023/05/25 10:53:28;;;;;;;1.52;1.40;;;;;;;;;;5061036;28;20560;-55
2023/05/25 10:56:05;;;;;;;3.25;1.60;;;;;;;;;;5063244;28;20049;-58
2023/05/25 10:58:32;;;;;;;3.95;1.25;;;;;;;;;;5062858;28;20053;-57
2023/05/25 11:01:08;;;;;;;4.50;1.90;;;;;;;;;;5062362;28;20498;-58
2023/05/25 11:03:43;;;;;;;5.25;1.88;;;;;;;;;;5060074;28;20573;-57
2023/05/25 11:06:12;;;;;;;4.75;1.90;;;;;;;;;;5061287;28;20106;-58
2023/05/25 11:08:47;;;;;;;3.63;2.25;;;;;;;;;;5054124;28;20140;-58
2023/05/25 11:11:14;;;;;;;3.05;1.83;;;;;;;;;;5051236;28;20131;-55
2023/05/25 11:13:44;;;;;;;5.78;3.00;;;;;;;;;;5059951;28;20064;-54
2023/05/25 11:16:21;;;;;;;4.35;2.25;;;;;;;;;;5062719;28;20144;-57
2023/05/25 11:18:50;;;;;;;5.65;2.08;;;;;;;;;;5050140;28;20064;-53
2023/05/25 11:21:31;;;;;;;6.75;2.33;;;;;;;;;;5054768;28;20063;-55
2023/05/25 11:24:01;;;;;;;3.33;2.00;;;;;;;;;;5047368;28;20046;-53
2023/05/25 11:26:29;;;;;;;4.80;2.20;;;;;;;;;;5053063;28;20057;-58
2023/05/25 11:28:57;;;;;;;5.38;2.30;;;;;;;;;;5053078;28;20057;-55
2023/05/25 11:31:31;;;;;;;5.72;2.50;;;;;;;;;;5042274;28;20415;-55
2023/05/25 11:34:04;;;;;;;6.40;2.20;;;;;;;;;;5061838;28;20057;-57
2023/05/25 11:36:32;;;;;;;3.85;1.60;;;;;;;;;;5064019;28;22213;-57
2023/05/25 11:39:02;;;;;;;2.05;1.60;;;;;;;;;;5065118;28;20057;-57
2023/05/25 11:41:47;;;;;;;3.92;1.75;;;;;;;;;;5065565;28;20052;-54
2023/05/25 11:44:13;;;;;;;5.20;1.90;;;;;;;;;;5061695;28;20056;-56
2023/05/25 11:46:42;;;;;;;4.72;2.40;;;;;;;;;;5053692;28;20064;-56
2023/05/25 11:49:09;;;;;;;4.38;2.20;;;;;;;;;;5065364;28;20578;-57
2023/05/25 11:51:36;;;;;;;7.55;2.15;;;;;;;;;;5064969;28;20136;-58
2023/05/25 11:54:03;;;;;;;6.03;2.03;;;;;;;;;;5065445;28;20140;-58
2023/05/25 11:56:31;;;;;;;5.90;2.03;;;;;;;;;;5064221;28;20127;-57
2023/05/25 11:59:01;;;;;;;7.15;2.28;;;;;;;;;;5064077;28;20099;-57
2023/05/25 12:01:30;;;;;;;3.85;1.85;;;;;;;;;;5066124;28;20502;-58
2023/05/25 12:03:57;;;;;;;4.43;2.30;;;;;;;;;;5064566;28;20040;-58
2023/05/25 12:06:28;;;;;;;6.38;1.83;;;;;;;;;;5064441;28;20057;-58
2023/05/25 12:08:55;;;;;;;4.55;1.83;;;;;;;;;;5065859;28;20542;-58
2023/05/25 12:11:36;;;;;;;6.18;1.63;;;;;;;;;;5065349;28;20077;-58
2023/05/25 12:14:04;;;;;;;2.72;1.75;;;;;;;;;;5063647;28;20053;-57
2023/05/25 12:16:33;;;;;;;4.88;1.63;;;;;;;;;;5065228;28;20111;-54
2023/05/25 12:19:01;;;;;;;5.32;1.98;;;;;;;;;;5063943;28;20068;-55
2023/05/25 12:21:28;;;;;;;3.92;1.80;;;;;;;;;;5064273;28;20057;-55
2023/05/25 12:23:54;;;;;;;3.72;1.83;;;;;;;;;;5063610;28;20111;-58
2023/05/25 12:26:21;;;;;;;6.60;1.67;;;;;;;;;;5064843;28;20107;-57
2023/05/25 12:29:07;;;;;;;5.82;1.95;;;;;;;;;;5066699;28;20521;-52
2023/05/25 12:31:34;;;;;;;4.65;2.30;;;;;;;;;;5065079;28;20059;-58
2023/05/25 12:34:01;;;;;;;5.45;2.45;;;;;;;;;;5062283;28;20080;-52
2023/05/25 12:36:38;;;;;;;7.80;1.73;;;;;;;;;;5065732;28;20061;-55
2023/05/25 12:39:05;;;;;;;7.30;1.92;;;;;;;;;;5064519;28;20053;-57
2023/05/25 12:41:41;;;;;;;4.03;1.90;;;;;;;;;;5061487;28;20049;-57
2023/05/25 12:44:14;;;;;;;6.18;2.55;;;;;;;;;;5054861;28;20046;-54
2023/05/25 12:46:41;;;;;;;4.53;2.08;;;;;;;;;;5048716;28;20052;-55
2023/05/25 12:49:22;;;;;;;4.72;1.95;;;;;;;;;;5064630;28;20049;-51
2023/05/25 12:51:49;;;;;;;9.40;1.73;;;;;;;;;;5064693;28;20872;-51
2023/05/25 12:54:16;;;;;;;4.22;2.03;;;;;;;;;;5052823;28;20104;-52
2023/05/25 12:56:52;;;;;;;8.35;2.47;;;;;;;;;;5044563;28;20553;-52
2023/05/25 12:59:19;;;;;;;8.00;2.10;;;;;;;;;;5044556;28;20056;-54
2023/05/25 13:01:45;;;;;;;10.57;2.42;;;;;;;;;;5044677;28;20061;-52
2023/05/25 13:04:12;;;;;;;6.15;2.35;;;;;;;;;;5060676;28;20088;-54
2023/05/25 13:06:38;;;;;;;8.48;2.60;;;;;;;;;;5070033;28;20052;-55
2023/05/25 13:09:04;;;;;;;6.22;2.30;;;;;;;;;;5064487;28;20056;-54
2023/05/25 13:11:31;;;;;;;4.50;2.58;;;;;;;;;;5059344;28;20442;-54
2023/05/25 13:13:57;;;;;;;6.07;2.78;;;;;;;;;;5058069;28;20136;-55
2023/05/25 13:16:24;;;;;;;6.50;2.33;;;;;;;;;;5064783;28;20053;-51
2023/05/25 13:18:51;;;;;;;8.63;2.42;;;;;;;;;;5064514;28;20544;-54
2023/05/25 13:21:17;;;;;;;6.07;2.45;;;;;;;;;;5064338;28;20048;-52
2023/05/25 13:23:43;;;;;;;7.35;2.10;;;;;;;;;;5063925;28;20119;-57
2023/05/25 13:26:11;;;;;;;4.47;2.13;;;;;;;;;;5063352;28;20057;-52
2023/05/25 13:28:37;;;;;;;8.15;2.45;;;;;;;;;;5057632;28;20990;-50
2023/05/25 13:31:03;;;;;;;11.48;2.53;;;;;;;;;;5063273;28;20049;-50
2023/05/25 13:33:30;;;;;;;7.90;2.85;;;;;;;;;;5060421;28;20057;-54
2023/05/25 13:35:57;;;;;;;7.70;2.08;;;;;;;;;;5064277;28;20095;-54
2023/05/25 13:38:24;;;;;;;4.32;1.90;;;;;;;;;;5064373;28;20052;-53
2023/05/25 13:40:50;;;;;;;7.15;2.30;;;;;;;;;;5063949;28;20052;-53
2023/05/25 13:43:17;;;;;;;11.27;2.50;;;;;;;;;;5061420;28;20056;-52
2023/05/25 13:45:44;;;;;;;8.27;2.72;;;;;;;;;;5062208;28;20063;-54
2023/05/25 13:48:10;;;;;;;7.18;2.72;;;;;;;;;;5044476;28;20103;-52
2023/05/25 13:50:37;;;;;;;8.05;2.30;;;;;;;;;;5044036;28;20056;-57
2023/05/25 13:53:03;;;;;;;5.93;2.25;;;;;;;;;;5048819;28;20528;-56
2023/05/25 13:55:29;;;;;;;8.20;3.38;;;;;;;;;;5063179;28;20064;-55
2023/05/25 13:57:56;;;;;;;6.15;2.30;;;;;;;;;;5061411;28;20084;-55
2023/05/25 14:00:22;;;;;;;6.10;3.00;;;;;;;;;;5052490;28;20061;-57
2023/05/25 14:02:49;;;;;;;9.70;3.35;;;;;;;;;;5051304;28;20064;-55
2023/05/25 14:05:17;;;;;;;7.85;2.45;;;;;;;;;;5064199;28;20056;-56
2023/05/25 14:07:43;;;;;;;6.75;2.75;;;;;;;;;;5062116;28;20053;-53
2023/05/25 14:10:10;;;;;;;5.95;2.88;;;;;;;;;;5063404;28;20049;-56
2023/05/25 14:12:36;;;;;;;8.40;3.22;;;;;;;;;;5063500;28;20062;-50
2023/05/25 14:15:03;;;;;;;10.00;3.08;;;;;;;;;;5061662;28;20314;-55
2023/05/25 14:17:29;;;;;;;7.63;2.42;;;;;;;;;;5045388;28;20531;-38
2023/05/25 14:19:57;;;;;;;8.70;2.38;;;;;;;;;;5056304;28;20067;-52
2023/05/25 14:22:24;;;;;;;6.95;2.35;;;;;;;;;;5057551;28;20055;-53
2023/05/25 14:24:51;;;;;;;6.18;2.47;;;;;;;;;;5061500;28;20081;-54
2023/05/25 14:27:19;;;;;;;8.23;2.20;;;;;;;;;;5061119;28;20135;-55
2023/05/25 14:29:46;;;;;;;9.98;3.17;;;;;;;;;;5051136;28;20144;-44
2023/05/25 14:32:14;;;;;;;5.93;1.80;;;;;;;;;;5062120;28;20449;-56
2023/05/25 14:34:40;;;;;;;17.83;3.45;;;;;;;;;;5060647;28;20057;-57
2023/05/25 14:37:07;;;;;;;9.68;3.30;;;;;;;;;;5050272;28;20030;-58
2023/05/25 14:39:35;;;;;;;10.20;2.97;;;;;;;;;;5054491;28;20053;-58
2023/05/25 14:42:01;;;;;;;7.32;2.35;;;;;;;;;;5052973;28;20117;-58
2023/05/25 14:44:28;;;;;;;6.25;2.90;;;;;;;;;;5061991;28;20529;-57